sensor_id;sensor_type;location;lat;lon;timestamp;P1;durP1;ratioP1;P2;durP2;ratioP2
9306;SDS011;4691;47.612;7.610;2023-03-11T00:00:23;6.88;;;4.72;;
9306;SDS011;4691;47.612;7.610;2023-03-11T00:02:50;8.13;;;5.20;;
9306;SDS011;4691;47.612;7.610;2023-03-11T00:05:19;8.35;;;4.78;;
9306;SDS011;4691;47.612;7.610;2023-03-11T00:07:46;6.45;;;4.68;;
9306;SDS011;4691;47.612;7.610;2023-03-11T00:10:15;7.78;;;4.80;;
9306;SDS011;4691;47.612;7.610;2023-03-11T00:12:42;7.50;;;4.32;;
9306;SDS011;4691;47.612;7.610;2023-03-11T00:15:08;10.35;;;4.85;;
9306;SDS011;4691;47.612;7.610;2023-03-11T00:17:34;9.85;;;4.90;;
9306;SDS011;4691;47.612;7.610;2023-03-11T00:20:00;5.70;;;4.05;;
9306;SDS011;4691;47.612;7.610;2023-03-11T00:22:25;9.30;;;5.78;;
9306;SDS011;4691;47.612;7.610;2023-03-11T00:24:51;6.75;;;4.50;;
9306;SDS011;4691;47.612;7.610;2023-03-11T00:27:16;6.60;;;4.85;;
9306;SDS011;4691;47.612;7.610;2023-03-11T00:29:41;11.63;;;6.10;;
9306;SDS011;4691;47.612;7.610;2023-03-11T00:32:07;11.70;;;6.53;;
9306;SDS011;4691;47.612;7.610;2023-03-11T00:34:32;14.98;;;6.78;;
9306;SDS011;4691;47.612;7.610;2023-03-11T00:36:57;15.02;;;7.18;;
9306;SDS011;4691;47.612;7.610;2023-03-11T00:39:23;11.40;;;7.22;;
9306;SDS011;4691;47.612;7.610;2023-03-11T00:41:48;11.43;;;7.78;;
9306;SDS011;4691;47.612;7.610;2023-03-11T00:44:14;15.18;;;8.43;;
9306;SDS011;4691;47.612;7.610;2023-03-11T00:46:40;15.45;;;8.20;;
9306;SDS011;4691;47.612;7.610;2023-03-11T00:49:05;14.48;;;8.93;;
9306;SDS011;4691;47.612;7.610;2023-03-11T00:51:30;15.18;;;8.90;;
9306;SDS011;4691;47.612;7.610;2023-03-11T00:53:55;15.43;;;8.30;;
9306;SDS011;4691;47.612;7.610;2023-03-11T00:56:21;14.02;;;8.77;;
9306;SDS011;4691;47.612;7.610;2023-03-11T00:58:46;18.63;;;9.63;;
9306;SDS011;4691;47.612;7.610;2023-03-11T01:01:13;16.75;;;9.60;;
9306;SDS011;4691;47.612;7.610;2023-03-11T01:03:43;15.85;;;9.13;;
9306;SDS011;4691;47.612;7.610;2023-03-11T01:06:09;19.25;;;9.40;;
9306;SDS011;4691;47.612;7.610;2023-03-11T01:08:34;16.45;;;9.10;;
9306;SDS011;4691;47.612;7.610;2023-03-11T01:11:00;17.17;;;8.65;;
9306;SDS011;4691;47.612;7.610;2023-03-11T01:13:26;13.00;;;8.02;;
9306;SDS011;4691;47.612;7.610;2023-03-11T01:15:53;16.70;;;8.75;;
9306;SDS011;4691;47.612;7.610;2023-03-11T01:18:19;14.98;;;7.97;;
9306;SDS011;4691;47.612;7.610;2023-03-11T01:20:45;15.88;;;7.78;;
9306;SDS011;4691;47.612;7.610;2023-03-11T01:23:11;14.95;;;7.90;;
9306;SDS011;4691;47.612;7.610;2023-03-11T01:25:37;12.02;;;6.88;;
9306;SDS011;4691;47.612;7.610;2023-03-11T01:28:05;15.02;;;7.97;;
9306;SDS011;4691;47.612;7.610;2023-03-11T01:30:36;13.80;;;7.47;;
9306;SDS011;4691;47.612;7.610;2023-03-11T01:33:05;14.25;;;7.70;;
9306;SDS011;4691;47.612;7.610;2023-03-11T01:35:31;14.30;;;6.95;;
9306;SDS011;4691;47.612;7.610;2023-03-11T01:37:57;11.23;;;7.07;;
9306;SDS011;4691;47.612;7.610;2023-03-11T01:40:40;13.88;;;7.00;;
9306;SDS011;4691;47.612;7.610;2023-03-11T01:48:36;14.15;;;7.78;;
9306;SDS011;4691;47.612;7.610;2023-03-11T01:51:03;18.65;;;8.45;;
9306;SDS011;4691;47.612;7.610;2023-03-11T01:53:29;23.65;;;8.85;;
9306;SDS011;4691;47.612;7.610;2023-03-11T01:55:54;15.90;;;8.07;;
9306;SDS011;4691;47.612;7.610;2023-03-11T01:58:21;13.52;;;8.25;;
9306;SDS011;4691;47.612;7.610;2023-03-11T02:00:49;15.50;;;8.00;;
9306;SDS011;4691;47.612;7.610;2023-03-11T02:03:16;12.77;;;7.25;;
9306;SDS011;4691;47.612;7.610;2023-03-11T02:05:45;14.85;;;8.27;;
9306;SDS011;4691;47.612;7.610;2023-03-11T02:08:12;13.50;;;7.78;;
9306;SDS011;4691;47.612;7.610;2023-03-11T02:10:38;15.80;;;7.97;;
9306;SDS011;4691;47.612;7.610;2023-03-11T02:13:06;15.90;;;8.27;;
9306;SDS011;4691;47.612;7.610;2023-03-11T02:15:31;13.82;;;7.68;;
9306;SDS011;4691;47.612;7.610;2023-03-11T02:17:57;14.52;;;7.70;;
9306;SDS011;4691;47.612;7.610;2023-03-11T02:20:29;14.35;;;6.93;;
9306;SDS011;4691;47.612;7.610;2023-03-11T02:25:31;11.73;;;6.35;;
9306;SDS011;4691;47.612;7.610;2023-03-11T02:28:12;11.18;;;6.60;;
9306;SDS011;4691;47.612;7.610;2023-03-11T02:30:41;12.60;;;6.47;;
9306;SDS011;4691;47.612;7.610;2023-03-11T02:33:07;13.82;;;7.15;;
9306;SDS011;4691;47.612;7.610;2023-03-11T02:35:33;13.55;;;7.45;;
9306;SDS011;4691;47.612;7.610;2023-03-11T02:37:59;11.88;;;7.05;;
9306;SDS011;4691;47.612;7.610;2023-03-11T02:43:01;11.65;;;7.10;;
9306;SDS011;4691;47.612;7.610;2023-03-11T02:45:29;13.82;;;7.68;;
9306;SDS011;4691;47.612;7.610;2023-03-11T02:47:55;13.98;;;7.28;;
9306;SDS011;4691;47.612;7.610;2023-03-11T02:50:23;15.13;;;7.25;;
9306;SDS011;4691;47.612;7.610;2023-03-11T02:52:51;14.38;;;7.60;;
9306;SDS011;4691;47.612;7.610;2023-03-11T02:55:16;15.00;;;7.25;;
9306;SDS011;4691;47.612;7.610;2023-03-11T02:57:44;14.45;;;7.40;;
9306;SDS011;4691;47.612;7.610;2023-03-11T03:00:11;15.82;;;8.38;;
9306;SDS011;4691;47.612;7.610;2023-03-11T03:02:40;11.63;;;6.65;;
9306;SDS011;4691;47.612;7.610;2023-03-11T03:05:06;14.73;;;7.18;;
9306;SDS011;4691;47.612;7.610;2023-03-11T03:07:32;13.35;;;7.55;;
9306;SDS011;4691;47.612;7.610;2023-03-11T03:09:57;12.43;;;6.43;;
9306;SDS011;4691;47.612;7.610;2023-03-11T03:12:23;11.70;;;7.10;;
9306;SDS011;4691;47.612;7.610;2023-03-11T03:14:48;15.88;;;7.97;;
9306;SDS011;4691;47.612;7.610;2023-03-11T03:19:31;17.85;;;8.65;;
9306;SDS011;4691;47.612;7.610;2023-03-11T03:21:57;22.83;;;8.93;;
9306;SDS011;4691;47.612;7.610;2023-03-11T03:24:22;15.63;;;8.98;;
9306;SDS011;4691;47.612;7.610;2023-03-11T03:26:47;14.95;;;8.48;;
9306;SDS011;4691;47.612;7.610;2023-03-11T03:29:13;18.88;;;8.85;;
9306;SDS011;4691;47.612;7.610;2023-03-11T03:31:38;20.30;;;9.95;;
9306;SDS011;4691;47.612;7.610;2023-03-11T03:34:03;17.77;;;8.75;;
9306;SDS011;4691;47.612;7.610;2023-03-11T03:36:28;17.60;;;8.90;;
9306;SDS011;4691;47.612;7.610;2023-03-11T03:38:55;16.92;;;8.45;;
9306;SDS011;4691;47.612;7.610;2023-03-11T03:41:21;14.65;;;8.52;;
9306;SDS011;4691;47.612;7.610;2023-03-11T03:43:47;15.23;;;8.50;;
9306;SDS011;4691;47.612;7.610;2023-03-11T03:46:12;16.67;;;8.23;;
9306;SDS011;4691;47.612;7.610;2023-03-11T03:48:37;14.48;;;8.02;;
9306;SDS011;4691;47.612;7.610;2023-03-11T03:51:03;12.90;;;7.28;;
9306;SDS011;4691;47.612;7.610;2023-03-11T03:53:30;16.30;;;7.22;;
9306;SDS011;4691;47.612;7.610;2023-03-11T03:56:00;17.23;;;7.85;;
9306;SDS011;4691;47.612;7.610;2023-03-11T03:58:29;12.15;;;6.10;;
9306;SDS011;4691;47.612;7.610;2023-03-11T04:00:55;9.68;;;5.20;;
9306;SDS011;4691;47.612;7.610;2023-03-11T04:03:21;8.10;;;4.75;;
9306;SDS011;4691;47.612;7.610;2023-03-11T04:05:46;9.15;;;4.68;;
9306;SDS011;4691;47.612;7.610;2023-03-11T04:08:11;9.90;;;4.78;;
9306;SDS011;4691;47.612;7.610;2023-03-11T04:10:37;14.15;;;5.78;;
9306;SDS011;4691;47.612;7.610;2023-03-11T04:13:02;8.73;;;4.72;;
9306;SDS011;4691;47.612;7.610;2023-03-11T04:15:27;12.45;;;5.55;;
9306;SDS011;4691;47.612;7.610;2023-03-11T04:17:53;9.80;;;4.82;;
9306;SDS011;4691;47.612;7.610;2023-03-11T04:20:18;11.90;;;4.75;;
9306;SDS011;4691;47.612;7.610;2023-03-11T04:22:43;8.98;;;4.95;;
9306;SDS011;4691;47.612;7.610;2023-03-11T04:25:09;10.85;;;4.70;;
9306;SDS011;4691;47.612;7.610;2023-03-11T04:27:34;12.82;;;5.35;;
9306;SDS011;4691;47.612;7.610;2023-03-11T04:29:59;9.10;;;5.05;;
9306;SDS011;4691;47.612;7.610;2023-03-11T04:32:25;8.35;;;4.70;;
9306;SDS011;4691;47.612;7.610;2023-03-11T04:34:50;7.63;;;4.22;;
9306;SDS011;4691;47.612;7.610;2023-03-11T04:37:15;9.45;;;4.95;;
9306;SDS011;4691;47.612;7.610;2023-03-11T04:39:40;11.05;;;4.88;;
9306;SDS011;4691;47.612;7.610;2023-03-11T04:42:06;11.60;;;5.35;;
9306;SDS011;4691;47.612;7.610;2023-03-11T04:44:33;10.27;;;5.20;;
9306;SDS011;4691;47.612;7.610;2023-03-11T04:46:59;7.68;;;4.72;;
9306;SDS011;4691;47.612;7.610;2023-03-11T04:49:24;15.43;;;5.47;;
9306;SDS011;4691;47.612;7.610;2023-03-11T04:51:50;7.45;;;4.28;;
9306;SDS011;4691;47.612;7.610;2023-03-11T04:54:15;15.95;;;6.22;;
9306;SDS011;4691;47.612;7.610;2023-03-11T04:56:40;8.82;;;4.25;;
9306;SDS011;4691;47.612;7.610;2023-03-11T04:59:06;10.13;;;4.28;;
9306;SDS011;4691;47.612;7.610;2023-03-11T05:01:31;11.13;;;5.10;;
9306;SDS011;4691;47.612;7.610;2023-03-11T05:03:56;11.52;;;5.18;;
9306;SDS011;4691;47.612;7.610;2023-03-11T05:06:22;9.00;;;3.78;;
9306;SDS011;4691;47.612;7.610;2023-03-11T05:08:47;7.47;;;4.30;;
9306;SDS011;4691;47.612;7.610;2023-03-11T05:11:12;12.15;;;5.03;;
9306;SDS011;4691;47.612;7.610;2023-03-11T05:13:38;11.48;;;5.40;;
9306;SDS011;4691;47.612;7.610;2023-03-11T05:16:03;11.82;;;5.47;;
9306;SDS011;4691;47.612;7.610;2023-03-11T05:18:29;11.57;;;4.70;;
9306;SDS011;4691;47.612;7.610;2023-03-11T05:20:56;13.13;;;5.32;;
9306;SDS011;4691;47.612;7.610;2023-03-11T05:23:21;12.40;;;5.82;;
9306;SDS011;4691;47.612;7.610;2023-03-11T05:25:47;12.27;;;5.57;;
9306;SDS011;4691;47.612;7.610;2023-03-11T05:28:12;14.40;;;5.47;;
9306;SDS011;4691;47.612;7.610;2023-03-11T05:30:37;17.42;;;5.57;;
9306;SDS011;4691;47.612;7.610;2023-03-11T05:33:02;16.27;;;5.95;;
9306;SDS011;4691;47.612;7.610;2023-03-11T05:35:28;14.27;;;5.85;;
9306;SDS011;4691;47.612;7.610;2023-03-11T05:37:53;12.88;;;6.25;;
9306;SDS011;4691;47.612;7.610;2023-03-11T05:40:19;9.02;;;4.82;;
9306;SDS011;4691;47.612;7.610;2023-03-11T05:42:44;12.88;;;5.47;;
9306;SDS011;4691;47.612;7.610;2023-03-11T05:45:10;15.00;;;5.30;;
9306;SDS011;4691;47.612;7.610;2023-03-11T05:47:35;9.68;;;5.32;;
9306;SDS011;4691;47.612;7.610;2023-03-11T05:50:00;11.02;;;5.60;;
9306;SDS011;4691;47.612;7.610;2023-03-11T05:52:26;12.85;;;5.38;;
9306;SDS011;4691;47.612;7.610;2023-03-11T05:54:51;11.77;;;5.18;;
9306;SDS011;4691;47.612;7.610;2023-03-11T05:57:17;9.00;;;5.05;;
9306;SDS011;4691;47.612;7.610;2023-03-11T05:59:43;10.55;;;4.35;;
9306;SDS011;4691;47.612;7.610;2023-03-11T06:02:09;9.20;;;4.45;;
9306;SDS011;4691;47.612;7.610;2023-03-11T06:04:34;8.60;;;4.57;;
9306;SDS011;4691;47.612;7.610;2023-03-11T06:06:59;7.00;;;3.58;;
9306;SDS011;4691;47.612;7.610;2023-03-11T06:09:25;5.15;;;2.58;;
9306;SDS011;4691;47.612;7.610;2023-03-11T06:11:50;6.93;;;3.28;;
9306;SDS011;4691;47.612;7.610;2023-03-11T06:14:16;6.75;;;2.83;;
9306;SDS011;4691;47.612;7.610;2023-03-11T06:16:41;7.10;;;3.13;;
9306;SDS011;4691;47.612;7.610;2023-03-11T06:19:07;5.55;;;2.67;;
9306;SDS011;4691;47.612;7.610;2023-03-11T06:21:32;6.43;;;3.58;;
9306;SDS011;4691;47.612;7.610;2023-03-11T06:23:57;9.13;;;3.80;;
9306;SDS011;4691;47.612;7.610;2023-03-11T06:26:23;7.63;;;3.63;;
9306;SDS011;4691;47.612;7.610;2023-03-11T06:28:49;6.97;;;4.00;;
9306;SDS011;4691;47.612;7.610;2023-03-11T06:31:20;9.30;;;3.83;;
9306;SDS011;4691;47.612;7.610;2023-03-11T06:33:48;9.13;;;3.78;;
9306;SDS011;4691;47.612;7.610;2023-03-11T06:36:14;8.00;;;4.00;;
9306;SDS011;4691;47.612;7.610;2023-03-11T06:38:40;6.82;;;3.70;;
9306;SDS011;4691;47.612;7.610;2023-03-11T06:41:07;5.32;;;3.53;;
9306;SDS011;4691;47.612;7.610;2023-03-11T06:43:33;6.28;;;3.75;;
9306;SDS011;4691;47.612;7.610;2023-03-11T06:45:59;6.43;;;4.93;;
9306;SDS011;4691;47.612;7.610;2023-03-11T06:48:25;8.65;;;5.00;;
9306;SDS011;4691;47.612;7.610;2023-03-11T06:50:55;8.95;;;4.60;;
9306;SDS011;4691;47.612;7.610;2023-03-11T06:56:03;9.60;;;4.05;;
9306;SDS011;4691;47.612;7.610;2023-03-11T06:58:33;8.52;;;4.55;;
9306;SDS011;4691;47.612;7.610;2023-03-11T07:01:01;8.43;;;4.18;;
9306;SDS011;4691;47.612;7.610;2023-03-11T07:03:36;14.50;;;4.50;;
9306;SDS011;4691;47.612;7.610;2023-03-11T07:06:02;7.53;;;4.93;;
9306;SDS011;4691;47.612;7.610;2023-03-11T07:08:28;7.20;;;4.30;;
9306;SDS011;4691;47.612;7.610;2023-03-11T07:11:03;7.90;;;4.55;;
9306;SDS011;4691;47.612;7.610;2023-03-11T07:13:34;10.82;;;6.50;;
9306;SDS011;4691;47.612;7.610;2023-03-11T07:16:01;12.50;;;5.72;;
9306;SDS011;4691;47.612;7.610;2023-03-11T07:18:29;16.40;;;8.63;;
9306;SDS011;4691;47.612;7.610;2023-03-11T07:20:55;8.45;;;5.05;;
9306;SDS011;4691;47.612;7.610;2023-03-11T07:23:20;10.90;;;5.03;;
9306;SDS011;4691;47.612;7.610;2023-03-11T07:25:46;10.13;;;5.30;;
9306;SDS011;4691;47.612;7.610;2023-03-11T07:28:12;7.88;;;3.97;;
9306;SDS011;4691;47.612;7.610;2023-03-11T07:30:38;6.97;;;4.43;;
9306;SDS011;4691;47.612;7.610;2023-03-11T07:33:03;9.07;;;4.45;;
9306;SDS011;4691;47.612;7.610;2023-03-11T07:35:29;6.95;;;4.28;;
9306;SDS011;4691;47.612;7.610;2023-03-11T07:37:54;12.27;;;5.20;;
9306;SDS011;4691;47.612;7.610;2023-03-11T07:40:21;12.35;;;5.05;;
9306;SDS011;4691;47.612;7.610;2023-03-11T07:42:46;8.40;;;4.22;;
9306;SDS011;4691;47.612;7.610;2023-03-11T07:48:33;8.27;;;4.60;;
9306;SDS011;4691;47.612;7.610;2023-03-11T07:51:03;11.27;;;5.35;;
9306;SDS011;4691;47.612;7.610;2023-03-11T07:53:30;14.05;;;6.60;;
9306;SDS011;4691;47.612;7.610;2023-03-11T07:55:56;14.15;;;6.28;;
9306;SDS011;4691;47.612;7.610;2023-03-11T07:58:22;10.63;;;5.70;;
9306;SDS011;4691;47.612;7.610;2023-03-11T08:00:48;10.68;;;5.22;;
9306;SDS011;4691;47.612;7.610;2023-03-11T08:03:13;14.98;;;5.82;;
9306;SDS011;4691;47.612;7.610;2023-03-11T08:05:38;9.18;;;4.75;;
9306;SDS011;4691;47.612;7.610;2023-03-11T08:08:03;16.13;;;6.60;;
9306;SDS011;4691;47.612;7.610;2023-03-11T08:10:29;13.48;;;6.78;;
9306;SDS011;4691;47.612;7.610;2023-03-11T08:12:54;13.85;;;6.82;;
9306;SDS011;4691;47.612;7.610;2023-03-11T08:15:19;12.45;;;5.72;;
9306;SDS011;4691;47.612;7.610;2023-03-11T08:17:44;12.68;;;6.03;;
9306;SDS011;4691;47.612;7.610;2023-03-11T08:26:54;14.60;;;6.80;;
9306;SDS011;4691;47.612;7.610;2023-03-11T08:29:21;12.38;;;6.43;;
9306;SDS011;4691;47.612;7.610;2023-03-11T08:31:46;15.23;;;6.70;;
9306;SDS011;4691;47.612;7.610;2023-03-11T08:34:12;11.23;;;5.78;;
9306;SDS011;4691;47.612;7.610;2023-03-11T08:36:38;10.05;;;5.88;;
9306;SDS011;4691;47.612;7.610;2023-03-11T08:39:03;9.18;;;5.53;;
9306;SDS011;4691;47.612;7.610;2023-03-11T08:41:29;15.88;;;8.45;;
9306;SDS011;4691;47.612;7.610;2023-03-11T08:43:54;12.82;;;7.80;;
9306;SDS011;4691;47.612;7.610;2023-03-11T08:46:22;11.40;;;6.53;;
9306;SDS011;4691;47.612;7.610;2023-03-11T08:48:58;9.57;;;6.10;;
9306;SDS011;4691;47.612;7.610;2023-03-11T08:51:24;13.30;;;7.22;;
9306;SDS011;4691;47.612;7.610;2023-03-11T08:53:50;17.88;;;8.93;;
9306;SDS011;4691;47.612;7.610;2023-03-11T08:56:16;15.32;;;9.02;;
9306;SDS011;4691;47.612;7.610;2023-03-11T08:58:42;14.90;;;8.60;;
9306;SDS011;4691;47.612;7.610;2023-03-11T09:01:09;14.10;;;7.50;;
9306;SDS011;4691;47.612;7.610;2023-03-11T09:03:36;20.08;;;8.98;;
9306;SDS011;4691;47.612;7.610;2023-03-11T09:06:03;21.85;;;8.50;;
9306;SDS011;4691;47.612;7.610;2023-03-11T09:08:30;15.40;;;8.48;;
9306;SDS011;4691;47.612;7.610;2023-03-11T09:10:55;18.85;;;9.13;;
9306;SDS011;4691;47.612;7.610;2023-03-11T09:13:21;15.57;;;8.57;;
9306;SDS011;4691;47.612;7.610;2023-03-11T09:15:47;17.73;;;9.10;;
9306;SDS011;4691;47.612;7.610;2023-03-11T09:18:13;15.32;;;8.20;;
9306;SDS011;4691;47.612;7.610;2023-03-11T09:20:40;19.52;;;9.05;;
9306;SDS011;4691;47.612;7.610;2023-03-11T09:23:06;16.65;;;7.32;;
9306;SDS011;4691;47.612;7.610;2023-03-11T09:25:32;12.07;;;6.80;;
9306;SDS011;4691;47.612;7.610;2023-03-11T09:27:57;15.82;;;7.28;;
9306;SDS011;4691;47.612;7.610;2023-03-11T09:30:22;11.60;;;7.35;;
9306;SDS011;4691;47.612;7.610;2023-03-11T09:32:48;13.02;;;6.88;;
9306;SDS011;4691;47.612;7.610;2023-03-11T09:35:13;13.50;;;7.15;;
9306;SDS011;4691;47.612;7.610;2023-03-11T09:37:39;12.98;;;6.88;;
9306;SDS011;4691;47.612;7.610;2023-03-11T09:40:04;12.18;;;6.32;;
9306;SDS011;4691;47.612;7.610;2023-03-11T09:42:36;9.07;;;5.57;;
9306;SDS011;4691;47.612;7.610;2023-03-11T09:45:14;12.70;;;6.60;;
9306;SDS011;4691;47.612;7.610;2023-03-11T09:58:12;14.32;;;6.93;;
9306;SDS011;4691;47.612;7.610;2023-03-11T10:00:42;10.85;;;5.88;;
9306;SDS011;4691;47.612;7.610;2023-03-11T10:03:13;10.45;;;5.93;;
9306;SDS011;4691;47.612;7.610;2023-03-11T10:05:48;13.48;;;6.07;;
9306;SDS011;4691;47.612;7.610;2023-03-11T10:08:23;11.48;;;5.47;;
9306;SDS011;4691;47.612;7.610;2023-03-11T10:14:01;7.65;;;4.55;;
9306;SDS011;4691;47.612;7.610;2023-03-11T10:17:04;7.32;;;4.72;;
9306;SDS011;4691;47.612;7.610;2023-03-11T10:19:43;11.82;;;5.10;;
9306;SDS011;4691;47.612;7.610;2023-03-11T10:22:22;10.52;;;5.40;;
9306;SDS011;4691;47.612;7.610;2023-03-11T10:27:34;10.25;;;5.97;;
9306;SDS011;4691;47.612;7.610;2023-03-11T10:30:18;7.88;;;5.03;;
9306;SDS011;4691;47.612;7.610;2023-03-11T10:32:51;13.27;;;5.45;;
9306;SDS011;4691;47.612;7.610;2023-03-11T10:35:22;9.35;;;6.30;;
9306;SDS011;4691;47.612;7.610;2023-03-11T10:37:58;12.43;;;5.53;;
9306;SDS011;4691;47.612;7.610;2023-03-11T10:40:30;11.27;;;6.20;;
9306;SDS011;4691;47.612;7.610;2023-03-11T10:43:02;8.17;;;5.27;;
9306;SDS011;4691;47.612;7.610;2023-03-11T10:45:36;10.27;;;5.72;;
9306;SDS011;4691;47.612;7.610;2023-03-11T10:48:11;9.27;;;5.03;;
9306;SDS011;4691;47.612;7.610;2023-03-11T10:50:48;10.07;;;5.00;;
9306;SDS011;4691;47.612;7.610;2023-03-11T10:53:26;10.10;;;5.15;;
9306;SDS011;4691;47.612;7.610;2023-03-11T10:55:53;11.20;;;7.57;;
9306;SDS011;4691;47.612;7.610;2023-03-11T10:58:23;10.40;;;6.65;;
9306;SDS011;4691;47.612;7.610;2023-03-11T11:01:14;7.50;;;5.30;;
9306;SDS011;4691;47.612;7.610;2023-03-11T11:03:42;8.68;;;5.18;;
9306;SDS011;4691;47.612;7.610;2023-03-11T11:06:44;8.85;;;5.28;;
9306;SDS011;4691;47.612;7.610;2023-03-11T11:09:06;21.90;;;8.93;;
9306;SDS011;4691;47.612;7.610;2023-03-11T11:11:39;21.88;;;9.35;;
9306;SDS011;4691;47.612;7.610;2023-03-11T11:14:04;10.20;;;5.60;;
9306;SDS011;4691;47.612;7.610;2023-03-11T11:16:30;7.80;;;4.70;;
9306;SDS011;4691;47.612;7.610;2023-03-11T11:18:59;5.07;;;3.38;;
9306;SDS011;4691;47.612;7.610;2023-03-11T11:21:32;10.88;;;5.70;;
9306;SDS011;4691;47.612;7.610;2023-03-11T11:27:01;7.78;;;4.57;;
9306;SDS011;4691;47.612;7.610;2023-03-11T11:29:46;7.28;;;5.20;;
9306;SDS011;4691;47.612;7.610;2023-03-11T11:34:53;6.90;;;4.70;;
9306;SDS011;4691;47.612;7.610;2023-03-11T11:37:21;6.15;;;4.32;;
9306;SDS011;4691;47.612;7.610;2023-03-11T11:39:49;8.10;;;4.80;;
9306;SDS011;4691;47.612;7.610;2023-03-11T11:42:22;7.80;;;5.22;;
9306;SDS011;4691;47.612;7.610;2023-03-11T11:44:51;5.93;;;4.07;;
9306;SDS011;4691;47.612;7.610;2023-03-11T11:47:23;7.18;;;4.60;;
9306;SDS011;4691;47.612;7.610;2023-03-11T11:49:53;7.18;;;4.63;;
9306;SDS011;4691;47.612;7.610;2023-03-11T11:52:25;5.40;;;3.93;;
9306;SDS011;4691;47.612;7.610;2023-03-11T11:55:03;5.13;;;4.40;;
9306;SDS011;4691;47.612;7.610;2023-03-11T11:57:31;9.02;;;4.65;;
9306;SDS011;4691;47.612;7.610;2023-03-11T11:59:57;6.72;;;4.63;;
9306;SDS011;4691;47.612;7.610;2023-03-11T12:03:08;5.82;;;4.68;;
9306;SDS011;4691;47.612;7.610;2023-03-11T12:05:28;6.68;;;5.00;;
9306;SDS011;4691;47.612;7.610;2023-03-11T12:08:14;5.90;;;4.40;;
9306;SDS011;4691;47.612;7.610;2023-03-11T12:27:21;7.00;;;5.50;;
9306;SDS011;4691;47.612;7.610;2023-03-11T12:29:51;10.77;;;5.18;;
9306;SDS011;4691;47.612;7.610;2023-03-11T12:32:23;7.13;;;3.92;;
9306;SDS011;4691;47.612;7.610;2023-03-11T12:35:00;6.68;;;4.20;;
9306;SDS011;4691;47.612;7.610;2023-03-11T12:37:28;8.00;;;4.65;;
9306;SDS011;4691;47.612;7.610;2023-03-11T12:39:54;9.88;;;5.25;;
9306;SDS011;4691;47.612;7.610;2023-03-11T12:42:21;9.88;;;5.70;;
9306;SDS011;4691;47.612;7.610;2023-03-11T12:44:51;6.82;;;4.80;;
9306;SDS011;4691;47.612;7.610;2023-03-11T12:47:22;9.70;;;5.25;;
9306;SDS011;4691;47.612;7.610;2023-03-11T12:49:49;6.72;;;4.55;;
9306;SDS011;4691;47.612;7.610;2023-03-11T12:52:23;5.82;;;4.20;;
9306;SDS011;4691;47.612;7.610;2023-03-11T12:57:28;7.82;;;4.93;;
9306;SDS011;4691;47.612;7.610;2023-03-11T13:10:38;4.80;;;4.20;;
9306;SDS011;4691;47.612;7.610;2023-03-11T13:15:48;5.60;;;3.17;;
9306;SDS011;4691;47.612;7.610;2023-03-11T13:18:25;7.20;;;4.30;;
9306;SDS011;4691;47.612;7.610;2023-03-11T13:20:59;6.70;;;4.57;;
9306;SDS011;4691;47.612;7.610;2023-03-11T13:23:35;7.55;;;4.97;;
9306;SDS011;4691;47.612;7.610;2023-03-11T13:37:04;5.57;;;4.40;;
9306;SDS011;4691;47.612;7.610;2023-03-11T13:42:27;5.78;;;4.85;;
9306;SDS011;4691;47.612;7.610;2023-03-11T13:44:53;5.55;;;4.55;;
9306;SDS011;4691;47.612;7.610;2023-03-11T13:47:20;6.78;;;4.88;;
9306;SDS011;4691;47.612;7.610;2023-03-11T13:52:26;6.07;;;4.68;;
9306;SDS011;4691;47.612;7.610;2023-03-11T13:55:05;6.95;;;5.15;;
9306;SDS011;4691;47.612;7.610;2023-03-11T13:57:34;7.93;;;5.75;;
9306;SDS011;4691;47.612;7.610;2023-03-11T14:00:20;7.18;;;5.68;;
9306;SDS011;4691;47.612;7.610;2023-03-11T14:02:53;8.18;;;5.90;;
9306;SDS011;4691;47.612;7.610;2023-03-11T14:05:21;8.45;;;5.30;;
9306;SDS011;4691;47.612;7.610;2023-03-11T14:08:10;5.95;;;4.60;;
9306;SDS011;4691;47.612;7.610;2023-03-11T14:10:50;5.65;;;3.97;;
9306;SDS011;4691;47.612;7.610;2023-03-11T14:15:58;5.28;;;3.60;;
9306;SDS011;4691;47.612;7.610;2023-03-11T14:20:55;4.70;;;3.83;;
9306;SDS011;4691;47.612;7.610;2023-03-11T14:23:21;7.30;;;4.50;;
9306;SDS011;4691;47.612;7.610;2023-03-11T14:25:59;4.65;;;3.92;;
9306;SDS011;4691;47.612;7.610;2023-03-11T14:28:26;11.68;;;5.40;;
9306;SDS011;4691;47.612;7.610;2023-03-11T14:30:56;5.93;;;4.05;;
9306;SDS011;4691;47.612;7.610;2023-03-11T14:33:23;7.78;;;5.07;;
9306;SDS011;4691;47.612;7.610;2023-03-11T14:35:53;7.75;;;5.40;;
9306;SDS011;4691;47.612;7.610;2023-03-11T14:38:21;7.90;;;5.10;;
9306;SDS011;4691;47.612;7.610;2023-03-11T14:40:52;6.85;;;4.53;;
9306;SDS011;4691;47.612;7.610;2023-03-11T14:43:27;5.18;;;4.30;;
9306;SDS011;4691;47.612;7.610;2023-03-11T14:45:57;5.53;;;4.18;;
9306;SDS011;4691;47.612;7.610;2023-03-11T14:48:25;7.55;;;4.18;;
9306;SDS011;4691;47.612;7.610;2023-03-11T14:50:51;5.07;;;4.07;;
9306;SDS011;4691;47.612;7.610;2023-03-11T14:53:24;8.00;;;5.57;;
9306;SDS011;4691;47.612;7.610;2023-03-11T14:58:22;6.53;;;4.65;;
9306;SDS011;4691;47.612;7.610;2023-03-11T15:03:35;8.75;;;5.07;;
9306;SDS011;4691;47.612;7.610;2023-03-11T15:06:11;7.77;;;5.50;;
9306;SDS011;4691;47.612;7.610;2023-03-11T15:08:44;8.52;;;5.10;;
9306;SDS011;4691;47.612;7.610;2023-03-11T15:13:38;12.10;;;4.40;;
9306;SDS011;4691;47.612;7.610;2023-03-11T15:18:58;16.75;;;5.00;;
9306;SDS011;4691;47.612;7.610;2023-03-11T15:21:47;6.50;;;5.07;;
9306;SDS011;4691;47.612;7.610;2023-03-11T15:24:18;7.53;;;4.95;;
9306;SDS011;4691;47.612;7.610;2023-03-11T15:26:52;8.75;;;5.07;;
9306;SDS011;4691;47.612;7.610;2023-03-11T15:29:20;6.90;;;5.40;;
9306;SDS011;4691;47.612;7.610;2023-03-11T15:31:45;7.43;;;4.75;;
9306;SDS011;4691;47.612;7.610;2023-03-11T15:36:42;5.50;;;4.10;;
9306;SDS011;4691;47.612;7.610;2023-03-11T15:41:58;5.28;;;4.00;;
9306;SDS011;4691;47.612;7.610;2023-03-11T15:44:39;9.20;;;4.32;;
9306;SDS011;4691;47.612;7.610;2023-03-11T15:47:11;6.13;;;3.78;;
9306;SDS011;4691;47.612;7.610;2023-03-11T15:49:38;5.38;;;4.07;;
9306;SDS011;4691;47.612;7.610;2023-03-11T15:52:04;4.72;;;3.90;;
9306;SDS011;4691;47.612;7.610;2023-03-11T15:54:29;5.18;;;3.83;;
9306;SDS011;4691;47.612;7.610;2023-03-11T15:56:55;6.20;;;4.18;;
9306;SDS011;4691;47.612;7.610;2023-03-11T15:59:22;5.32;;;3.83;;
9306;SDS011;4691;47.612;7.610;2023-03-11T16:01:48;5.07;;;4.07;;
9306;SDS011;4691;47.612;7.610;2023-03-11T16:04:15;6.22;;;4.20;;
9306;SDS011;4691;47.612;7.610;2023-03-11T16:06:41;6.30;;;4.00;;
9306;SDS011;4691;47.612;7.610;2023-03-11T16:09:07;6.22;;;4.00;;
9306;SDS011;4691;47.612;7.610;2023-03-11T16:11:33;6.13;;;4.00;;
9306;SDS011;4691;47.612;7.610;2023-03-11T16:13:59;7.75;;;5.22;;
9306;SDS011;4691;47.612;7.610;2023-03-11T16:16:24;6.10;;;4.25;;
9306;SDS011;4691;47.612;7.610;2023-03-11T16:18:49;5.03;;;3.83;;
9306;SDS011;4691;47.612;7.610;2023-03-11T16:21:16;5.28;;;4.00;;
9306;SDS011;4691;47.612;7.610;2023-03-11T16:23:43;7.22;;;5.13;;
9306;SDS011;4691;47.612;7.610;2023-03-11T16:26:09;12.88;;;7.28;;
9306;SDS011;4691;47.612;7.610;2023-03-11T16:28:36;15.38;;;8.30;;
9306;SDS011;4691;47.612;7.610;2023-03-11T16:31:01;7.78;;;5.18;;
9306;SDS011;4691;47.612;7.610;2023-03-11T16:33:27;7.65;;;5.40;;
9306;SDS011;4691;47.612;7.610;2023-03-11T16:35:53;8.45;;;6.32;;
9306;SDS011;4691;47.612;7.610;2023-03-11T16:38:18;8.35;;;6.05;;
9306;SDS011;4691;47.612;7.610;2023-03-11T16:40:51;10.02;;;5.45;;
9306;SDS011;4691;47.612;7.610;2023-03-11T16:43:23;6.50;;;5.10;;
9306;SDS011;4691;47.612;7.610;2023-03-11T16:45:48;7.88;;;5.18;;
9306;SDS011;4691;47.612;7.610;2023-03-11T16:48:14;7.80;;;5.47;;
9306;SDS011;4691;47.612;7.610;2023-03-11T16:50:39;7.35;;;4.82;;
9306;SDS011;4691;47.612;7.610;2023-03-11T16:53:04;7.05;;;5.22;;
9306;SDS011;4691;47.612;7.610;2023-03-11T16:55:30;8.57;;;5.70;;
9306;SDS011;4691;47.612;7.610;2023-03-11T16:57:55;7.47;;;4.95;;
9306;SDS011;4691;47.612;7.610;2023-03-11T17:00:21;6.28;;;5.00;;
9306;SDS011;4691;47.612;7.610;2023-03-11T17:02:48;7.20;;;4.65;;
9306;SDS011;4691;47.612;7.610;2023-03-11T17:05:14;8.13;;;4.95;;
9306;SDS011;4691;47.612;7.610;2023-03-11T17:07:39;9.35;;;5.75;;
9306;SDS011;4691;47.612;7.610;2023-03-11T17:10:06;9.60;;;4.97;;